Terminal Aerodrome Forecast
Issued by NWS

Home | Current Version | Previous Version | Text Only | Print | Product List | Glossary On
Versions: 1 2 3 4 5 6 7 8 9 10 11 12 13 14 15 16 17 18
000
FTUS46 KSEW 241100
TAFOLM
TAF
KOLM 241136Z 2412/2512 00000KT 4SM BR SCT001 BKN020
      TEMPO 2412/2416 1/2SM FG BKN001 BKN020
     FM241600 VRB03KT P6SM SCT025 BKN040 BKN070
     FM242000 02006KT P6SM BKN070 OVC100
     FM250300 02006KT P6SM -RA OVC045
     FM250800 02006KT P6SM -RA OVC022=

USA.gov is the U.S. government's official web portal to all federal, state and local government web resources and services.